Time;durP1;ratioP1;P1;durP2;ratioP2;P2;SDS_P1;SDS_P2;PMS_P1;PMS_P2;Temp;Humidity;BMP_temperature;BMP_pressure;BME280_temperature;BME280_humidity;BME280_pressure;Samples;Min_cycle;Max_cycle;Signal;HPM_P1;HPM_P2
2022/11/02 00:00:27;;;;;;;12.00;9.27;;;;;;;-143.84;91.73;45193.78;5071130;28;20506;-68
2022/11/02 00:02:54;;;;;;;10.67;9.60;;;;;;;-143.84;90.80;45167.13;5070566;28;20539;-68
2022/11/02 00:05:23;;;;;;;13.60;8.77;;;;;;;-143.84;90.29;45176.66;5070456;28;20560;-68
2022/11/02 00:07:51;;;;;;;12.30;8.40;;;;;;;-143.84;90.13;45174.75;5070960;28;20523;-68
2022/11/02 00:10:19;;;;;;;13.93;8.43;;;;;;;-143.84;89.59;45161.41;5070749;28;20438;-68
2022/11/02 00:12:46;;;;;;;11.43;8.27;;;;;;;-143.84;89.09;45172.84;5070761;28;20440;-68
2022/11/02 00:15:14;;;;;;;18.37;7.80;;;;;;;-143.84;88.47;45163.31;5070574;28;20451;-68
2022/11/02 00:17:45;;;;;;;9.70;8.00;;;;;;;-143.84;88.08;45189.97;5070671;28;20455;-68
2022/11/02 00:20:14;;;;;;;10.33;8.30;;;;;;;-143.84;88.04;45170.94;5070428;28;20509;-68
2022/11/02 00:22:44;;;;;;;9.97;6.60;;;;;;;-143.84;87.79;45151.91;5070332;28;20437;-68
2022/11/02 00:25:14;;;;;;;7.57;6.73;;;;;;;-143.84;87.88;45163.31;5070413;28;20448;-68
2022/11/02 00:27:43;;;;;;;7.70;6.90;;;;;;;-143.84;87.63;45176.66;5070485;28;20433;-68
2022/11/02 00:30:11;;;;;;;14.00;8.60;;;;;;;-143.84;87.59;45163.31;5070253;28;20455;-67
2022/11/02 00:32:38;;;;;;;11.17;8.33;;;;;;;-143.84;87.55;45195.69;5070286;28;20436;-68
2022/11/02 00:35:06;;;;;;;8.20;6.90;;;;;;;-143.84;87.74;45157.59;5069920;28;20549;-68
2022/11/02 00:37:33;;;;;;;9.67;7.70;;;;;;;-143.84;87.69;45178.56;5070038;28;21059;-68
2022/11/02 00:40:02;;;;;;;10.60;8.00;;;;;;;-143.84;87.53;45170.94;5070152;28;20437;-68
2022/11/02 00:42:29;;;;;;;16.70;8.23;;;;;;;-143.84;87.07;45182.38;5070013;28;20447;-68
2022/11/02 00:44:56;;;;;;;15.93;7.70;;;;;;;-143.84;86.81;45167.13;5069999;28;20502;-68
2022/11/02 00:47:23;;;;;;;11.33;7.13;;;;;;;-143.84;86.85;45155.69;5069924;28;20451;-68
2022/11/02 00:49:50;;;;;;;11.63;8.07;;;;;;;-143.84;86.68;45163.31;5069871;28;20451;-68
2022/11/02 00:52:17;;;;;;;14.97;8.27;;;;;;;-143.84;86.59;45165.22;5069918;28;20429;-68
2022/11/02 00:54:45;;;;;;;8.80;7.23;;;;;;;-143.84;86.31;45138.56;5069670;28;20498;-68
2022/11/02 00:57:13;;;;;;;25.13;8.33;;;;;;;-143.84;86.20;45165.22;5069913;28;20553;-68
2022/11/02 00:59:40;;;;;;;10.43;7.90;;;;;;;-143.84;86.03;45165.22;5068897;28;20440;-68
2022/11/02 01:02:07;;;;;;;9.20;7.53;;;;;;;-143.84;85.87;45180.47;5068418;28;20506;-68
2022/11/02 01:04:35;;;;;;;12.20;7.03;;;;;;;-143.84;85.87;45178.56;5068318;28;21082;-68
2022/11/02 01:07:02;;;;;;;8.30;6.97;;;;;;;-143.84;85.85;45163.31;5069365;28;20440;-68
2022/11/02 01:09:30;;;;;;;12.50;8.13;;;;;;;-143.84;85.83;45148.09;5069417;28;20448;-67
2022/11/02 01:11:57;;;;;;;10.87;7.43;;;;;;;-143.84;85.57;45161.41;5069639;28;20436;-67
2022/11/02 01:14:25;;;;;;;16.90;7.50;;;;;;;-143.84;85.37;45180.47;5069634;28;20445;-68
2022/11/02 01:16:52;;;;;;;9.73;7.70;;;;;;;-143.84;85.24;45153.81;5069453;28;20511;-68
2022/11/02 01:19:20;;;;;;;13.60;7.53;;;;;;;-143.84;84.79;45170.94;5069314;28;20883;-67
2022/11/02 01:21:47;;;;;;;7.97;6.53;;;;;;;-143.84;84.74;45153.81;5068760;28;21003;-67
2022/11/02 01:24:14;;;;;;;9.20;6.33;;;;;;;-143.84;84.80;45189.97;5068735;28;20448;-67
2022/11/02 01:26:42;;;;;;;8.67;7.83;;;;;;;-143.84;84.32;45155.69;5069207;28;20855;-67
2022/11/02 01:29:09;;;;;;;9.83;6.63;;;;;;;-143.84;84.40;45155.69;5069290;28;20447;-67
2022/11/02 01:31:37;;;;;;;8.17;6.90;;;;;;;-143.84;84.11;45210.94;5069080;28;20448;-67
2022/11/02 01:34:04;;;;;;;10.03;7.10;;;;;;;-143.84;83.73;45155.69;5069079;28;20486;-68
2022/11/02 01:36:31;;;;;;;9.50;6.60;;;;;;;-143.84;83.72;45169.03;5069151;28;20476;-67
2022/11/02 01:38:59;;;;;;;8.00;5.83;;;;;;;-143.84;83.52;45174.75;5069182;28;20448;-67
2022/11/02 01:41:26;;;;;;;8.77;6.93;;;;;;;-143.84;83.45;45157.59;5069068;28;20957;-67
2022/11/02 01:43:57;;;;;;;7.97;7.17;;;;;;;-143.84;83.05;45163.31;5069207;28;20478;-67
2022/11/02 01:46:32;;;;;;;8.23;6.27;;;;;;;-143.84;82.75;45155.69;5068365;28;20452;-67
2022/11/02 01:49:03;;;;;;;12.50;7.20;;;;;;;-143.84;82.67;45165.22;5068787;28;20436;-67
2022/11/02 01:51:34;;;;;;;7.30;6.60;;;;;;;-143.84;82.67;45188.06;5069358;28;20538;-67
2022/11/02 01:54:11;;;;;;;7.93;7.00;;;;;;;-143.84;82.14;45161.41;5069015;28;20444;-67
2022/11/02 01:56:40;;;;;;;9.60;6.60;;;;;;;-143.84;81.58;45174.75;5068832;28;20511;-68
2022/11/02 01:59:11;;;;;;;10.03;7.43;;;;;;;-143.84;81.21;45151.91;5068776;28;20502;-67
2022/11/02 02:01:39;;;;;;;8.30;6.60;;;;;;;-143.84;81.49;45151.91;5069002;28;20447;-68
2022/11/02 02:04:08;;;;;;;9.20;7.20;;;;;;;-143.84;81.10;45155.69;5068911;28;20488;-68
2022/11/02 02:06:35;;;;;;;10.57;7.60;;;;;;;-143.84;80.73;45161.41;5068585;28;20487;-68
2022/11/02 02:09:05;;;;;;;13.40;7.30;;;;;;;-143.84;80.97;45167.13;5068597;28;20451;-68
2022/11/02 02:11:34;;;;;;;7.73;6.73;;;;;;;-143.84;81.07;45167.13;5068993;28;20440;-68
2022/11/02 02:14:04;;;;;;;16.17;7.93;;;;;;;-143.84;81.53;45163.31;5068866;28;20497;-68
2022/11/02 02:16:57;;;;;;;9.30;6.30;;;;;;;-143.84;82.15;45161.41;5068849;28;20850;-68
2022/11/02 02:19:39;;;;;;;14.37;7.23;;;;;;;-143.84;82.41;45165.22;5068759;28;20514;-68
2022/11/02 02:22:23;;;;;;;13.87;7.77;;;;;;;-143.84;82.75;45167.13;5068339;28;20510;-68
2022/11/02 02:24:57;;;;;;;9.63;6.90;;;;;;;-143.84;82.47;45150.00;5068595;28;20445;-68
2022/11/02 02:27:30;;;;;;;8.63;7.50;;;;;;;-143.84;82.31;45174.75;5068434;28;20508;-68
2022/11/02 02:30:08;;;;;;;10.60;6.90;;;;;;;-143.84;82.55;45159.50;5068748;28;20459;-68
2022/11/02 02:32:44;;;;;;;11.53;5.83;;;;;;;-143.84;82.58;45189.97;5068564;28;20492;-68
2022/11/02 02:35:20;;;;;;;11.50;6.40;;;;;;;-143.84;82.32;45159.50;5068545;28;20443;-68
2022/11/02 02:37:55;;;;;;;10.40;7.13;;;;;;;-143.84;82.37;45186.16;5068349;28;20976;-68
2022/11/02 02:40:27;;;;;;;9.93;6.60;;;;;;;-143.84;82.20;45155.69;5068292;28;21041;-68
2022/11/02 02:42:59;;;;;;;7.50;6.70;;;;;;;-143.84;82.10;45153.81;5068494;28;20445;-68
2022/11/02 02:45:35;;;;;;;8.70;7.00;;;;;;;-143.84;81.92;45163.31;5068749;28;21377;-68
2022/11/02 02:48:10;;;;;;;9.70;6.60;;;;;;;-143.84;81.66;45170.94;5068412;28;20927;-68
2022/11/02 02:50:44;;;;;;;14.53;6.70;;;;;;;-143.84;81.38;45163.31;5068344;28;20469;-68
2022/11/02 02:53:12;;;;;;;11.70;7.53;;;;;;;-143.84;80.87;45148.09;5068561;28;20796;-68
2022/11/02 02:55:43;;;;;;;10.00;6.30;;;;;;;-143.84;80.82;45174.75;5068510;28;20831;-68
2022/11/02 02:58:18;;;;;;;11.13;7.07;;;;;;;-143.84;80.72;45161.41;5070089;28;20479;-68
2022/11/02 03:00:47;;;;;;;10.97;6.90;;;;;;;-143.84;80.33;45138.56;5072010;28;20440;-68
2022/11/02 03:03:18;;;;;;;10.47;6.83;;;;;;;-143.84;80.18;45155.69;5071941;28;20459;-68
2022/11/02 03:06:01;;;;;;;13.03;7.30;;;;;;;-143.84;80.11;45176.66;5072306;28;20436;-68
2022/11/02 03:08:28;;;;;;;13.20;7.30;;;;;;;-143.84;79.82;45191.88;5071559;28;20441;-68
2022/11/02 03:11:05;;;;;;;13.00;6.90;;;;;;;-143.84;79.93;45140.47;5071179;28;20912;-68
2022/11/02 03:13:45;;;;;;;8.70;6.73;;;;;;;-143.84;80.22;45163.31;5071517;28;20480;-68
2022/11/02 03:16:29;;;;;;;8.87;7.37;;;;;;;-143.84;79.93;45155.69;5070998;28;20452;-68
2022/11/02 03:19:05;;;;;;;11.03;7.67;;;;;;;-143.84;79.88;45155.69;5071161;28;20947;-68
2022/11/02 03:21:40;;;;;;;15.07;8.43;;;;;;;-143.84;79.96;45161.41;5071304;28;20510;-68
2022/11/02 03:24:13;;;;;;;10.67;7.50;;;;;;;-143.84;79.83;45157.59;5071432;28;20528;-68
2022/11/02 03:26:46;;;;;;;11.03;6.80;;;;;;;-143.84;79.93;45157.59;5071599;28;20445;-68
2022/11/02 03:29:18;;;;;;;11.13;7.10;;;;;;;-143.84;80.03;45167.13;5071421;28;21231;-68
2022/11/02 03:31:54;;;;;;;9.73;8.30;;;;;;;-143.84;79.99;45153.81;5071448;28;20949;-68
2022/11/02 03:34:27;;;;;;;16.00;7.47;;;;;;;-143.84;79.85;45161.41;5071359;28;20506;-67
2022/11/02 03:37:00;;;;;;;8.20;7.13;;;;;;;-143.84;79.65;45159.50;5071390;28;20546;-67
2022/11/02 03:39:32;;;;;;;14.30;7.63;;;;;;;-143.84;79.42;45188.06;5070669;28;20533;-70
2022/11/02 03:42:02;;;;;;;14.30;7.50;;;;;;;-143.84;79.31;45161.41;5070906;28;20459;-70
2022/11/02 03:44:31;;;;;;;10.77;7.10;;;;;;;-143.84;79.27;45153.81;5071013;28;20448;-70
2022/11/02 03:47:00;;;;;;;10.83;6.87;;;;;;;-143.84;78.90;45144.28;5070723;28;20447;-70
2022/11/02 03:49:30;;;;;;;9.50;7.10;;;;;;;-143.84;78.50;45144.28;5070429;28;20510;-70
2022/11/02 03:52:02;;;;;;;8.97;7.20;;;;;;;-143.84;78.22;45148.09;5071006;28;20948;-70
2022/11/02 03:54:39;;;;;;;15.90;7.20;;;;;;;-143.84;78.03;45170.94;5070922;28;20441;-71
2022/11/02 03:57:10;;;;;;;14.67;7.30;;;;;;;-143.84;77.51;45157.59;5070751;28;20482;-71
2022/11/02 03:59:37;;;;;;;9.53;6.50;;;;;;;-143.84;76.72;45174.75;5070742;28;20514;-71
2022/11/02 04:02:10;;;;;;;16.87;7.10;;;;;;;-143.84;76.74;45134.75;5070798;28;20441;-70
2022/11/02 04:04:49;;;;;;;10.93;6.63;;;;;;;-143.84;76.16;45167.13;5057196;28;20477;-70
2022/11/02 04:07:21;;;;;;;11.33;6.60;;;;;;;-143.84;75.52;45180.47;5050428;28;20461;-70
2022/11/02 04:09:48;;;;;;;15.27;6.17;;;;;;;-143.84;75.22;45153.81;5049834;28;20938;-70
2022/11/02 04:15:00;;;;;;;12.27;5.57;;;;;;;-143.84;74.41;45155.69;5050121;28;20515;-70
2022/11/02 04:20:13;;;;;;;11.30;5.80;;;;;;;-143.84;73.28;45134.75;5050363;28;20489;-70
2022/11/02 04:25:25;;;;;;;9.70;5.70;;;;;;;-143.84;72.18;45129.03;5050401;28;20433;-70
2022/11/02 04:27:53;;;;;;;11.80;6.27;;;;;;;-143.84;71.94;45151.91;5050321;28;20438;-70
2022/11/02 04:30:23;;;;;;;17.83;6.93;;;;;;;-143.84;71.33;45138.56;5050034;28;20448;-70
2022/11/02 04:35:37;;;;;;;15.67;5.87;;;;;;;-143.84;70.54;45136.66;5050242;28;20576;-70
2022/11/02 04:41:40;;;;;;;14.23;5.67;;;;;;;-143.84;69.80;45157.59;5050200;28;20578;-70
2022/11/02 04:43:36;;;;;;;14.10;5.40;;;;;;;-143.84;69.33;45148.09;5050012;28;20436;-70
2022/11/02 04:46:04;;;;;;;7.40;5.00;;;;;;;-143.84;68.97;45134.75;5050203;28;20453;-70
2022/11/02 04:48:33;;;;;;;15.90;4.83;;;;;;;-143.84;68.69;45144.28;5049698;28;20445;-70
2022/11/02 04:51:00;;;;;;;7.50;5.10;;;;;;;-143.84;67.58;45127.13;5049687;28;20834;-70
2022/11/02 04:53:28;;;;;;;6.70;5.00;;;;;;;-143.84;67.33;45146.19;5049685;28;20474;-70
2022/11/02 04:55:55;;;;;;;6.17;5.00;;;;;;;-143.84;66.66;45146.19;5049333;28;20499;-70
2022/11/02 04:58:22;;;;;;;9.33;5.03;;;;;;;-143.84;66.16;45144.28;5048664;28;20480;-70
2022/11/02 05:00:49;;;;;;;8.23;5.60;;;;;;;-143.84;65.97;45136.66;5049764;28;20506;-70
2022/11/02 05:03:16;;;;;;;9.10;4.80;;;;;;;-143.84;65.94;45136.66;5049257;28;20453;-70
2022/11/02 05:05:45;;;;;;;8.77;4.70;;;;;;;-143.84;65.18;45123.34;5049844;28;20441;-70
2022/11/02 05:08:12;;;;;;;16.80;5.67;;;;;;;-143.84;65.11;45132.84;5049669;28;20449;-70
2022/11/02 05:10:39;;;;;;;11.20;5.23;;;;;;;-143.84;64.97;45132.84;5049022;28;20504;-70
2022/11/02 05:13:06;;;;;;;17.83;5.73;;;;;;;-143.84;65.09;45125.22;5049426;28;20452;-70
2022/11/02 05:15:33;;;;;;;10.10;5.03;;;;;;;-143.84;65.76;45136.66;5049561;28;20442;-70
2022/11/02 05:18:00;;;;;;;11.73;5.30;;;;;;;-143.84;65.77;45127.13;5049679;28;20481;-70
2022/11/02 05:20:27;;;;;;;14.50;5.50;;;;;;;-143.84;65.61;45134.75;5049604;28;20438;-70
2022/11/02 05:22:56;;;;;;;27.30;5.77;;;;;;;-143.84;65.60;45136.66;5049525;28;20506;-70
2022/11/02 05:25:23;;;;;;;12.17;6.20;;;;;;;-143.84;65.77;45144.28;5049312;28;21009;-70
2022/11/02 05:27:50;;;;;;;7.97;5.10;;;;;;;-143.84;65.67;45148.09;5049102;28;20441;-70
2022/11/02 05:30:18;;;;;;;9.37;5.50;;;;;;;-143.84;66.15;45123.34;5048726;28;20507;-70
2022/11/02 05:32:45;;;;;;;9.77;5.10;;;;;;;-143.84;66.30;45144.28;5048201;28;20519;-70
2022/11/02 05:35:12;;;;;;;8.20;5.77;;;;;;;-143.84;66.12;45161.41;5048637;28;20915;-70
2022/11/02 05:37:39;;;;;;;7.83;5.47;;;;;;;-143.84;65.84;45125.22;5048685;28;20993;-70
2022/11/02 05:40:09;;;;;;;12.03;6.10;;;;;;;-143.84;65.18;45132.84;5048907;28;20442;-70
2022/11/02 05:42:36;;;;;;;11.30;5.10;;;;;;;-143.84;65.53;45148.09;5049043;28;20450;-71
2022/11/02 05:45:03;;;;;;;8.90;5.07;;;;;;;-143.84;64.99;45150.00;5048842;28;20970;-71
2022/11/02 05:47:30;;;;;;;6.53;5.87;;;;;;;-143.84;66.50;45129.03;5048822;28;20457;-70
2022/11/02 05:49:57;;;;;;;11.53;5.87;;;;;;;-143.84;66.97;45110.00;5049093;28;20927;-70
2022/11/02 05:52:25;;;;;;;20.83;6.40;;;;;;;-143.84;66.57;45130.94;5048943;28;20441;-70
2022/11/02 05:54:52;;;;;;;15.40;6.00;;;;;;;-143.84;65.08;45111.91;5048897;28;21005;-71
2022/11/02 05:57:21;;;;;;;15.90;6.60;;;;;;;-143.84;65.47;45113.81;5048738;28;20473;-70
2022/11/02 05:59:48;;;;;;;12.23;5.93;;;;;;;-143.84;65.84;45142.38;5048607;28;20465;-70
2022/11/02 06:02:15;;;;;;;10.90;6.00;;;;;;;-143.84;66.01;45121.44;5048565;28;20433;-71
2022/11/02 06:04:42;;;;;;;6.53;5.50;;;;;;;-143.84;66.85;45144.28;5048669;28;20486;-70
2022/11/02 06:07:09;;;;;;;5.83;5.23;;;;;;;-143.84;66.02;45121.44;5048728;28;20445;-70
2022/11/02 06:09:36;;;;;;;10.37;5.70;;;;;;;-143.84;65.26;45119.53;5048856;28;21194;-71
2022/11/02 06:12:04;;;;;;;9.53;6.20;;;;;;;-143.84;64.95;45123.34;5048090;28;20962;-71
2022/11/02 06:14:33;;;;;;;8.50;6.20;;;;;;;-143.84;64.46;45106.19;5048182;28;20473;-70
2022/11/02 06:17:00;;;;;;;7.00;6.00;;;;;;;-143.84;64.00;45117.63;5048001;28;20499;-71
2022/11/02 06:19:27;;;;;;;15.17;6.00;;;;;;;-143.84;62.53;45110.00;5048351;28;20958;-71
2022/11/02 06:21:54;;;;;;;16.30;5.80;;;;;;;-143.84;63.43;45102.38;5048674;28;20438;-71
2022/11/02 06:24:21;;;;;;;15.63;5.57;;;;;;;-143.84;64.18;45121.44;5048602;28;20442;-70
2022/11/02 06:26:48;;;;;;;11.40;4.60;;;;;;;-143.84;62.46;45111.91;5048545;28;20437;-70
2022/11/02 06:29:15;;;;;;;6.60;5.57;;;;;;;-143.84;60.71;45111.91;5048340;28;20511;-70
2022/11/02 06:31:44;;;;;;;18.77;5.57;;;;;;;-143.84;60.01;45100.47;5048689;28;20430;-71
2022/11/02 06:34:11;;;;;;;11.90;5.30;;;;;;;-143.84;60.72;45087.16;5051551;28;20438;-71
2022/11/02 06:36:38;;;;;;;27.87;5.97;;;;;;;-143.84;60.52;45104.28;5051887;28;20453;-71
2022/11/02 06:39:05;;;;;;;9.70;5.50;;;;;;;-143.84;59.27;45083.34;5052131;28;20487;-71
2022/11/02 06:41:32;;;;;;;11.63;5.03;;;;;;;-143.84;53.46;45106.19;5052617;28;20437;-71
2022/11/02 06:44:00;;;;;;;25.67;6.13;;;;;;;-143.84;55.18;45100.47;5052140;28;20826;-70
2022/11/02 06:46:27;;;;;;;14.40;6.30;;;;;;;-143.84;53.88;45090.97;5051430;28;20453;-71
2022/11/02 06:48:55;;;;;;;8.40;5.40;;;;;;;-143.84;52.95;45098.56;5051901;28;20947;-71
2022/11/02 06:51:22;;;;;;;21.30;5.30;;;;;;;-143.84;48.72;45090.97;5052276;28;20470;-71
2022/11/02 06:53:50;;;;;;;9.57;4.40;;;;;;;-143.84;47.34;45087.16;5052027;28;20939;-70
2022/11/02 06:56:17;;;;;;;18.83;4.87;;;;;;;-143.84;46.58;45066.22;5051982;28;20460;-70
2022/11/02 06:58:44;;;;;;;8.20;4.30;;;;;;;-143.84;45.79;45085.25;5051955;28;20488;-70
2022/11/02 07:01:12;;;;;;;30.10;6.13;;;;;;;-143.84;45.92;45068.13;5051926;28;20437;-70
2022/11/02 07:03:39;;;;;;;9.60;4.77;;;;;;;-143.84;45.48;45092.88;5051817;28;20821;-70
2022/11/02 07:06:07;;;;;;;9.70;5.13;;;;;;;-143.84;44.20;45096.66;5051640;28;20476;-71
2022/11/02 07:08:35;;;;;;;10.13;4.63;;;;;;;-143.84;43.75;45077.63;5052122;28;20445;-70
2022/11/02 07:11:02;;;;;;;10.13;4.57;;;;;;;-143.84;44.89;45079.53;5051712;28;20437;-70
2022/11/02 07:13:29;;;;;;;13.73;4.60;;;;;;;-143.84;44.71;45066.22;5051600;28;20441;-70
2022/11/02 07:15:56;;;;;;;13.00;5.97;;;;;;;-143.84;43.93;45071.91;5051877;28;20473;-71
2022/11/02 07:18:23;;;;;;;15.83;5.97;;;;;;;-143.84;43.68;45054.78;5051590;28;20488;-70
2022/11/02 07:20:51;;;;;;;12.43;5.47;;;;;;;-143.84;42.18;45056.69;5051537;28;21005;-70
2022/11/02 07:23:22;;;;;;;11.13;5.70;;;;;;;-143.84;41.37;45049.06;5051687;28;21108;-71
2022/11/02 07:25:49;;;;;;;12.40;6.77;;;;;;;-143.84;42.52;45058.59;5051635;28;20452;-70
2022/11/02 07:28:16;;;;;;;15.20;8.67;;;;;;;-143.84;43.03;45056.69;5051142;28;20454;-70
2022/11/02 07:30:44;;;;;;;24.03;9.47;;;;;;;-143.84;42.26;45054.78;5051447;28;20442;-70
2022/11/02 07:33:11;;;;;;;29.57;11.10;;;;;;;-143.84;42.42;45054.78;5051230;28;20446;-71
2022/11/02 07:35:38;;;;;;;34.70;11.37;;;;;;;-143.84;42.22;45043.34;5051287;28;20511;-71
2022/11/02 07:38:07;;;;;;;27.50;12.13;;;;;;;-143.84;42.08;45049.06;5051115;28;20492;-70
2022/11/02 07:40:37;;;;;;;29.93;13.03;;;;;;;-143.84;42.13;45066.22;5050892;28;20978;-70
2022/11/02 07:43:05;;;;;;;32.93;13.53;;;;;;;-143.84;42.48;45037.66;5051047;28;20446;-70
2022/11/02 07:45:33;;;;;;;34.73;13.63;;;;;;;-143.84;42.39;45054.78;5049887;28;20886;-70
2022/11/02 07:48:00;;;;;;;33.90;13.37;;;;;;;-143.84;41.08;45035.75;5050732;28;20441;-70
2022/11/02 07:50:27;;;;;;;26.13;12.87;;;;;;;-143.84;42.03;45052.88;5049877;28;20442;-70
2022/11/02 07:52:56;;;;;;;33.70;14.50;;;;;;;-143.84;41.59;45070.00;5050385;28;20437;-70
2022/11/02 07:55:25;;;;;;;46.63;15.27;;;;;;;-143.84;41.76;45043.34;5049931;28;20452;-70
2022/11/02 07:57:55;;;;;;;52.47;15.43;;;;;;;-143.84;42.07;45031.94;5050695;28;20543;-70
2022/11/02 08:00:22;;;;;;;25.80;13.20;;;;;;;-143.84;41.95;45049.06;5050814;28;20442;-70
2022/11/02 08:02:53;;;;;;;37.40;14.00;;;;;;;-143.84;42.14;45075.72;5050537;28;20848;-70
2022/11/02 08:05:20;;;;;;;36.93;12.40;;;;;;;-143.84;41.64;45043.34;5050374;28;20485;-70
2022/11/02 08:07:48;;;;;;;22.00;12.70;;;;;;;-143.84;41.23;45056.69;5050599;28;20446;-70
2022/11/02 08:10:15;;;;;;;29.57;12.10;;;;;;;-143.84;41.08;45073.81;5050515;28;20476;-70
2022/11/02 08:12:43;;;;;;;30.43;10.27;;;;;;;-143.84;40.60;45052.88;5050558;28;20528;-70
2022/11/02 08:15:12;;;;;;;18.00;8.87;;;;;;;-143.84;41.24;45068.13;5050396;28;20795;-70
2022/11/02 08:17:39;;;;;;;22.07;10.70;;;;;;;-143.84;41.01;45056.69;5050268;28;20882;-70
2022/11/02 08:20:08;;;;;;;14.07;9.00;;;;;;;-143.84;40.59;45054.78;5050426;28;20438;-70
2022/11/02 08:22:38;;;;;;;28.53;10.33;;;;;;;-143.84;40.82;45060.50;5050609;28;20449;-70
2022/11/02 08:25:07;;;;;;;33.40;10.77;;;;;;;-143.84;41.23;45068.13;5050396;28;20437;-70
2022/11/02 08:27:34;;;;;;;33.23;10.03;;;;;;;-143.84;41.64;45064.31;5050049;28;20480;-70
2022/11/02 08:30:01;;;;;;;19.47;11.47;;;;;;;-143.84;41.51;45031.94;5050199;28;20442;-70
2022/11/02 08:32:30;;;;;;;24.93;10.93;;;;;;;-143.84;41.19;45043.34;5049826;28;20533;-70
2022/11/02 08:34:57;;;;;;;29.43;12.90;;;;;;;-143.84;40.99;45033.84;5049628;28;20973;-70
2022/11/02 08:37:24;;;;;;;20.93;11.27;;;;;;;-143.84;40.50;45085.25;5049963;28;20445;-70
2022/11/02 08:39:52;;;;;;;30.73;11.53;;;;;;;-143.84;40.31;45056.69;5049788;28;20485;-70
2022/11/02 08:42:19;;;;;;;34.83;9.90;;;;;;;-143.84;40.43;45052.88;5049924;28;20491;-70
2022/11/02 08:44:46;;;;;;;29.73;10.37;;;;;;;-143.84;41.48;45064.31;5049575;28;20989;-70
2022/11/02 08:47:14;;;;;;;36.17;10.23;;;;;;;-143.84;41.62;45041.44;5050018;28;20433;-70
2022/11/02 08:49:43;;;;;;;18.83;10.50;;;;;;;-143.84;40.90;45030.03;5049782;28;20507;-70
2022/11/02 08:52:10;;;;;;;30.33;11.70;;;;;;;-143.84;40.31;45054.78;5049542;28;20437;-70
2022/11/02 08:54:37;;;;;;;37.77;11.00;;;;;;;-143.84;40.17;45028.13;5049761;28;20441;-70
2022/11/02 08:57:04;;;;;;;17.10;9.70;;;;;;;-143.84;39.69;45060.50;5048743;28;20442;-70
2022/11/02 08:59:31;;;;;;;34.00;9.57;;;;;;;-143.84;39.80;45064.31;5049329;28;21092;-70
2022/11/02 09:01:58;;;;;;;16.90;8.50;;;;;;;-143.84;39.56;45054.78;5049246;28;20473;-70
2022/11/02 09:04:26;;;;;;;16.80;8.83;;;;;;;-143.84;39.36;45043.34;5049228;28;20485;-70
2022/11/02 09:06:54;;;;;;;26.73;10.47;;;;;;;-143.84;39.65;45037.66;5049599;28;20633;-70
2022/11/02 09:09:22;;;;;;;23.07;8.83;;;;;;;-143.84;39.58;45033.84;5049648;28;20515;-70
2022/11/02 09:11:50;;;;;;;22.20;8.00;;;;;;;-143.84;38.96;44993.84;5049843;28;21430;-70
2022/11/02 09:14:17;;;;;;;19.67;9.40;;;;;;;-143.84;38.78;45037.66;5049826;28;20466;-70
2022/11/02 09:16:44;;;;;;;34.57;10.30;;;;;;;-143.84;38.77;45031.94;5049410;28;20437;-70
2022/11/02 09:19:11;;;;;;;25.70;8.77;;;;;;;-143.84;38.93;45014.78;5048642;28;20497;-70
2022/11/02 09:21:38;;;;;;;24.47;11.20;;;;;;;-143.84;37.64;45033.84;5049168;28;20499;-70
2022/11/02 09:24:08;;;;;;;30.17;12.40;;;;;;;-143.84;37.83;45030.03;5049381;28;20445;-70
2022/11/02 09:26:35;;;;;;;30.00;12.50;;;;;;;-143.84;38.74;45024.31;5049306;28;21010;-70
2022/11/02 09:29:03;;;;;;;22.73;12.90;;;;;;;-143.84;38.65;45007.19;5049296;28;20437;-70
2022/11/02 09:31:30;;;;;;;26.70;10.60;;;;;;;-143.84;38.61;45016.69;5049148;28;20503;-70
2022/11/02 09:33:57;;;;;;;20.27;9.87;;;;;;;-143.84;38.32;45018.59;5048492;28;20448;-70
2022/11/02 09:36:24;;;;;;;22.27;11.33;;;;;;;-143.84;38.08;45033.84;5048520;28;20446;-70
2022/11/02 09:38:51;;;;;;;23.93;9.60;;;;;;;-143.84;38.27;45009.09;5048899;28;20477;-70
2022/11/02 09:41:26;;;;;;;27.67;10.33;;;;;;;-143.84;37.95;45016.69;5049109;28;20442;-70
2022/11/02 09:44:03;;;;;;;31.33;9.77;;;;;;;-143.84;38.07;45031.94;5048959;28;20441;-70
2022/11/02 09:46:33;;;;;;;41.30;11.80;;;;;;;-143.84;38.07;45028.13;5049199;28;20434;-70
2022/11/02 09:49:05;;;;;;;29.80;10.47;;;;;;;-143.84;38.29;45037.66;5048870;28;20456;-70
2022/11/02 09:51:36;;;;;;;31.77;9.90;;;;;;;-143.84;37.29;45009.09;5048729;28;20449;-71
2022/11/02 09:54:12;;;;;;;18.50;9.67;;;;;;;-143.84;37.65;44999.56;5048749;28;20504;-70
2022/11/02 09:56:41;;;;;;;25.17;9.53;;;;;;;-143.84;37.01;45012.88;5048937;28;20857;-70
2022/11/02 09:59:15;;;;;;;26.60;9.30;;;;;;;-143.84;36.90;45009.09;5048589;28;20512;-70
2022/11/02 10:02:01;;;;;;;21.73;9.87;;;;;;;-143.84;36.68;45010.97;5049008;28;20837;-70
2022/11/02 10:04:49;;;;;;;18.87;8.70;;;;;;;-143.84;36.44;45014.78;5048185;28;20550;-70
2022/11/02 10:07:32;;;;;;;17.90;8.23;;;;;;;-143.84;36.42;45010.97;5047450;28;20515;-70
2022/11/02 10:10:03;;;;;;;27.37;8.63;;;;;;;-143.84;35.94;44991.94;5047994;28;21054;-70
2022/11/02 10:12:42;;;;;;;22.43;8.90;;;;;;;-143.84;35.55;44999.56;5047990;28;21015;-70
2022/11/02 10:15:15;;;;;;;24.57;8.93;;;;;;;-143.84;35.48;45022.41;5048552;28;20480;-70
2022/11/02 10:17:46;;;;;;;22.83;9.43;;;;;;;-143.84;34.72;45003.38;5048323;28;20442;-70
2022/11/02 10:20:22;;;;;;;30.33;8.23;;;;;;;-143.84;35.04;44993.84;5047689;28;20481;-70
2022/11/02 10:22:50;;;;;;;18.93;8.07;;;;;;;-143.84;34.83;45005.28;5047751;28;20442;-70
2022/11/02 10:25:17;;;;;;;21.57;7.10;;;;;;;-143.84;34.96;44972.91;5048217;28;20446;-70
2022/11/02 10:27:51;;;;;;;21.33;8.20;;;;;;;-143.84;35.37;44976.72;5048380;28;20966;-70
2022/11/02 10:30:20;;;;;;;23.63;8.63;;;;;;;-143.84;34.83;45010.97;5048391;28;20461;-70
2022/11/02 10:32:52;;;;;;;24.90;11.50;;;;;;;-143.84;35.18;45020.50;5048773;28;20438;-70
2022/11/02 10:35:27;;;;;;;20.07;8.77;;;;;;;-143.84;34.61;44982.41;5048361;28;20507;-70
2022/11/02 10:38:09;;;;;;;23.57;9.43;;;;;;;-143.84;34.94;44988.13;5048558;28;20452;-70
2022/11/02 10:41:03;;;;;;;22.90;10.30;;;;;;;-143.84;35.11;44982.41;5048359;28;20446;-70
2022/11/02 10:43:45;;;;;;;24.63;10.00;;;;;;;-143.84;34.85;44990.03;5048651;28;21205;-70
2022/11/02 10:46:26;;;;;;;28.83;10.20;;;;;;;-143.84;34.79;44990.03;5048440;28;20468;-70
2022/11/02 10:49:04;;;;;;;18.73;9.97;;;;;;;-143.84;35.25;44980.53;5048336;28;20441;-70
2022/11/02 10:51:31;;;;;;;17.77;9.83;;;;;;;-143.84;35.25;44999.56;5048347;28;20510;-70
2022/11/02 10:53:58;;;;;;;31.03;8.83;;;;;;;-143.84;35.08;44997.66;5048193;28;20438;-70
2022/11/02 10:56:30;;;;;;;24.73;9.40;;;;;;;-143.84;34.89;45009.09;5048152;28;20449;-70
2022/11/02 10:59:03;;;;;;;36.80;9.40;;;;;;;-143.84;34.99;44993.84;5048077;28;20863;-70
2022/11/02 11:01:32;;;;;;;24.93;9.50;;;;;;;-143.84;34.55;44959.56;5048041;28;20458;-70
2022/11/02 11:04:01;;;;;;;26.27;10.67;;;;;;;-143.84;34.90;44988.13;5047404;28;20489;-70
2022/11/02 11:06:30;;;;;;;33.90;10.10;;;;;;;-143.84;35.10;44995.75;5047771;28;20535;-70
2022/11/02 11:09:04;;;;;;;26.53;10.87;;;;;;;-143.84;35.15;45007.19;5048054;28;20503;-70
2022/11/02 11:11:34;;;;;;;28.90;9.90;;;;;;;-143.84;35.39;45014.78;5048015;28;20784;-70
2022/11/02 11:14:07;;;;;;;30.37;10.50;;;;;;;-143.84;35.30;44991.94;5048144;28;20978;-70
2022/11/02 11:16:40;;;;;;;27.17;9.10;;;;;;;-143.84;35.36;44988.13;5047958;28;20446;-70
2022/11/02 11:19:20;;;;;;;22.40;8.20;;;;;;;-143.84;36.33;44991.94;5049368;28;20562;-70
2022/11/02 11:21:48;;;;;;;24.13;8.80;;;;;;;-143.84;35.59;44993.84;5051566;28;20441;-71
2022/11/02 11:24:25;;;;;;;30.10;9.53;;;;;;;-143.84;35.76;45022.41;5051451;28;20450;-71
2022/11/02 11:27:16;;;;;;;36.50;8.70;;;;;;;-143.84;35.76;44999.56;5051542;28;20844;-71
2022/11/02 11:29:49;;;;;;;25.23;8.60;;;;;;;-143.84;35.90;45018.59;5051817;28;21127;-70
2022/11/02 11:32:19;;;;;;;29.83;8.70;;;;;;;-143.84;35.57;45031.94;5051522;28;20441;-70
2022/11/02 11:34:55;;;;;;;39.27;8.17;;;;;;;-143.84;35.71;45009.09;5051267;28;20444;-70